createdAt,value
2017-09-25T00:00:54.258Z,14.50
2017-09-25T00:03:20.686Z,14.60
2017-09-25T00:05:47.089Z,14.60
2017-09-25T00:08:14.251Z,14.70
2017-09-25T00:10:40.638Z,14.60
2017-09-25T00:13:07.054Z,14.60
2017-09-25T00:15:34.201Z,14.50
2017-09-25T00:18:02.270Z,14.50
2017-09-25T00:20:29.408Z,14.50
2017-09-25T00:22:56.008Z,14.50
2017-09-25T00:25:22.410Z,14.50
2017-09-25T00:27:48.783Z,14.40
2017-09-25T00:30:15.217Z,14.40
2017-09-25T00:32:41.630Z,14.40
2017-09-25T00:35:08.045Z,14.40
2017-09-25T00:37:34.431Z,14.40
2017-09-25T00:40:00.873Z,14.40
2017-09-25T00:42:27.315Z,14.40
2017-09-25T00:44:54.508Z,14.20
2017-09-25T00:47:20.919Z,14.20
2017-09-25T00:49:47.351Z,14.10
2017-09-25T00:52:18.883Z,14.10
2017-09-25T00:54:46.061Z,14.00
2017-09-25T00:57:12.461Z,14.00
2017-09-25T00:59:45.822Z,14.10
2017-09-25T01:02:24.572Z,14.10
2017-09-25T01:05:00.211Z,14.20
2017-09-25T01:07:26.634Z,14.20
2017-09-25T01:09:53.033Z,14.10
2017-09-25T01:12:19.452Z,14.10
2017-09-25T01:14:45.857Z,14.10
2017-09-25T01:17:12.312Z,14.20
2017-09-25T01:19:38.796Z,14.30
2017-09-25T01:22:05.213Z,14.30
2017-09-25T01:24:31.660Z,14.20
2017-09-25T01:26:58.067Z,14.20
2017-09-25T01:29:24.510Z,14.20
2017-09-25T01:31:50.941Z,14.20
2017-09-25T01:34:17.352Z,14.10
2017-09-25T01:36:43.766Z,14.10
2017-09-25T01:39:10.944Z,14.10
2017-09-25T01:41:37.403Z,14.10
2017-09-25T01:44:04.541Z,14.10
2017-09-25T01:46:30.962Z,14.10
2017-09-25T01:48:57.352Z,14.10
2017-09-25T01:51:23.745Z,14.10
2017-09-25T01:53:50.135Z,14.10
2017-09-25T01:56:17.280Z,14.20
2017-09-25T01:58:44.417Z,14.20
2017-09-25T02:01:10.820Z,14.10
2017-09-25T02:03:37.250Z,14.10
2017-09-25T02:06:05.825Z,14.10
2017-09-25T02:08:32.243Z,14.10
2017-09-25T02:10:58.652Z,14.10
2017-09-25T02:13:25.143Z,14.20
2017-09-25T02:15:51.551Z,14.20
2017-09-25T02:18:17.981Z,14.20
2017-09-25T02:20:44.381Z,14.20
2017-09-25T02:23:10.792Z,14.20
2017-09-25T02:25:37.188Z,14.10
2017-09-25T02:28:03.606Z,14.10
2017-09-25T02:30:30.054Z,14.10
2017-09-25T02:32:56.551Z,14.10
2017-09-25T02:35:22.991Z,14.10
2017-09-25T02:37:49.378Z,14.10
2017-09-25T02:40:15.796Z,14.10
2017-09-25T02:42:42.211Z,14.10
2017-09-25T02:45:08.633Z,13.90
2017-09-25T02:47:35.036Z,14.00
2017-09-25T02:50:02.194Z,13.90
2017-09-25T02:52:29.336Z,13.90
2017-09-25T02:54:56.476Z,13.90
2017-09-25T02:57:22.873Z,13.90
2017-09-25T02:59:49.281Z,13.80
2017-09-25T03:02:15.681Z,13.90
2017-09-25T03:04:42.858Z,13.90
2017-09-25T03:07:09.255Z,13.90
2017-09-25T03:09:36.442Z,13.90
2017-09-25T03:12:02.829Z,13.90
2017-09-25T03:14:29.225Z,13.90
2017-09-25T03:16:55.676Z,13.90
2017-09-25T03:19:23.592Z,13.80
2017-09-25T03:21:49.993Z,13.80
2017-09-25T03:24:17.920Z,13.80
2017-09-25T03:26:44.326Z,13.80
2017-09-25T03:29:10.711Z,13.90
2017-09-25T03:31:37.126Z,13.80
2017-09-25T03:34:03.586Z,13.80
2017-09-25T03:36:30.018Z,13.70
2017-09-25T03:38:57.182Z,13.70
2017-09-25T03:41:23.596Z,13.70
2017-09-25T03:43:50.009Z,13.70
2017-09-25T03:46:16.432Z,13.70
2017-09-25T03:48:42.838Z,13.70
2017-09-25T03:51:09.236Z,13.70
2017-09-25T03:53:35.610Z,13.70
2017-09-25T03:56:02.013Z,13.80
2017-09-25T03:58:29.142Z,13.90
2017-09-25T04:00:55.540Z,13.90
2017-09-25T04:03:21.941Z,13.80
2017-09-25T04:05:49.086Z,13.70
2017-09-25T04:08:16.260Z,13.70
2017-09-25T04:10:42.712Z,13.60
2017-09-25T04:13:09.094Z,13.70
2017-09-25T04:15:36.281Z,13.80
2017-09-25T04:18:02.665Z,13.80
2017-09-25T04:20:29.098Z,13.80
2017-09-25T04:22:55.661Z,13.70
2017-09-25T04:25:22.096Z,13.70
2017-09-25T04:27:48.517Z,13.60
2017-09-25T04:30:15.673Z,13.60
2017-09-25T04:32:42.839Z,13.60
2017-09-25T04:35:09.489Z,13.60
2017-09-25T04:37:35.900Z,13.60
2017-09-25T04:40:02.358Z,13.60
2017-09-25T04:42:28.750Z,13.60
2017-09-25T04:44:55.989Z,13.60
2017-09-25T04:47:22.383Z,13.60
2017-09-25T04:49:48.779Z,13.60
2017-09-25T04:52:15.944Z,13.60
2017-09-25T04:54:42.348Z,13.60
2017-09-25T04:57:09.528Z,13.70
2017-09-25T04:59:35.953Z,13.70
2017-09-25T05:02:02.359Z,13.70
2017-09-25T05:04:28.750Z,13.80
2017-09-25T05:06:55.257Z,13.80
2017-09-25T05:09:21.680Z,13.70
2017-09-25T05:11:48.193Z,13.70
2017-09-25T05:14:14.605Z,13.70
2017-09-25T05:16:41.078Z,13.80
2017-09-25T05:19:07.520Z,13.80
2017-09-25T05:21:33.967Z,13.80
2017-09-25T05:24:00.483Z,13.80
2017-09-25T05:26:27.102Z,13.70
2017-09-25T05:28:53.557Z,13.80
2017-09-25T05:31:19.937Z,13.90
2017-09-25T05:33:46.348Z,13.90
2017-09-25T05:36:12.898Z,13.90
2017-09-25T05:38:39.316Z,14.00
2017-09-25T05:41:05.685Z,14.00
2017-09-25T05:43:32.820Z,13.90
2017-09-25T05:45:59.235Z,13.90
2017-09-25T05:48:25.673Z,13.90
2017-09-25T05:50:52.869Z,13.90
2017-09-25T05:53:20.038Z,13.90
2017-09-25T05:55:46.584Z,13.90
2017-09-25T05:58:12.982Z,13.90
2017-09-25T06:00:39.409Z,13.90
2017-09-25T06:03:05.795Z,13.90
2017-09-25T06:05:32.197Z,13.90
2017-09-25T06:07:59.341Z,14.00
2017-09-25T06:10:28.450Z,14.00
2017-09-25T06:12:54.918Z,13.90
2017-09-25T06:15:21.352Z,14.00
2017-09-25T06:17:47.769Z,14.10
2017-09-25T06:20:14.202Z,14.10
2017-09-25T06:22:40.642Z,14.10
2017-09-25T06:25:07.058Z,14.20
2017-09-25T06:27:33.491Z,14.20
2017-09-25T06:29:59.874Z,14.30
2017-09-25T06:32:26.278Z,14.30
2017-09-25T06:34:52.708Z,14.30
2017-09-25T06:37:19.139Z,14.20
2017-09-25T06:39:45.537Z,14.30
2017-09-25T06:42:11.985Z,14.30
2017-09-25T06:44:38.461Z,14.40
2017-09-25T06:47:04.906Z,14.50
2017-09-25T06:49:31.342Z,14.60
2017-09-25T06:51:57.738Z,14.70
2017-09-25T06:54:24.178Z,14.70
2017-09-25T06:56:50.613Z,14.70
2017-09-25T06:59:17.029Z,14.80
2017-09-25T07:01:43.440Z,14.80
2017-09-25T07:04:09.922Z,15.00
2017-09-25T07:06:36.360Z,15.00
2017-09-25T07:09:02.888Z,15.10
2017-09-25T07:11:30.069Z,15.00
2017-09-25T07:13:57.211Z,15.10
2017-09-25T07:16:23.622Z,15.10
2017-09-25T07:18:50.009Z,15.10
2017-09-25T07:21:16.438Z,15.20
2017-09-25T07:23:42.884Z,15.30
2017-09-25T07:26:09.321Z,15.30
2017-09-25T07:28:35.756Z,15.20
2017-09-25T07:31:02.191Z,15.30
2017-09-25T07:33:28.632Z,15.20
2017-09-25T07:35:55.071Z,15.20
2017-09-25T07:38:21.449Z,15.20
2017-09-25T07:40:48.608Z,15.20
2017-09-25T07:43:15.778Z,15.20
2017-09-25T07:45:42.426Z,15.20
2017-09-25T07:48:08.836Z,15.30
2017-09-25T07:50:35.236Z,15.30
2017-09-25T07:53:01.622Z,15.40
2017-09-25T07:55:28.071Z,15.40
2017-09-25T07:57:54.484Z,15.50
2017-09-25T08:00:20.905Z,15.50
2017-09-25T08:02:47.348Z,15.60
2017-09-25T08:05:13.763Z,15.70
2017-09-25T08:07:40.889Z,15.80
2017-09-25T08:10:07.346Z,15.70
2017-09-25T08:12:33.749Z,15.90
2017-09-25T08:15:00.181Z,16.00
2017-09-25T08:17:26.597Z,16.10
2017-09-25T08:19:53.048Z,16.10
2017-09-25T08:22:19.464Z,16.10
2017-09-25T08:24:45.882Z,16.10
2017-09-25T08:27:12.272Z,16.20
2017-09-25T08:29:39.452Z,16.10
2017-09-25T08:32:05.856Z,16.10
2017-09-25T08:34:33.016Z,16.10
2017-09-25T08:36:59.415Z,16.10
2017-09-25T08:39:26.637Z,16.20
2017-09-25T08:41:53.114Z,16.20
2017-09-25T08:44:19.538Z,16.40
2017-09-25T08:46:46.733Z,16.30
2017-09-25T08:49:13.309Z,16.20
2017-09-25T08:51:39.730Z,16.10
2017-09-25T08:54:06.247Z,16.00
2017-09-25T08:56:32.754Z,16.20
2017-09-25T08:58:59.377Z,16.20
2017-09-25T09:01:26.556Z,16.10
2017-09-25T09:03:53.006Z,16.10
2017-09-25T09:06:19.417Z,15.90
2017-09-25T09:08:45.886Z,15.90
2017-09-25T09:11:12.348Z,16.10
2017-09-25T09:13:38.770Z,16.10
2017-09-25T09:16:05.179Z,16.10
2017-09-25T09:18:31.584Z,16.10
2017-09-25T09:20:58.762Z,16.20
2017-09-25T09:23:25.224Z,16.10
2017-09-25T09:25:51.634Z,16.00
2017-09-25T09:28:18.089Z,15.90
2017-09-25T09:30:44.503Z,15.90
2017-09-25T09:33:10.933Z,16.10
2017-09-25T09:35:37.409Z,16.10
2017-09-25T09:38:03.831Z,16.20
2017-09-25T09:40:30.981Z,15.90
2017-09-25T09:42:57.341Z,15.90
2017-09-25T09:45:23.736Z,15.80
2017-09-25T09:47:50.130Z,15.60
2017-09-25T09:50:16.597Z,15.50
2017-09-25T09:52:43.065Z,15.30
2017-09-25T09:55:09.505Z,15.20
2017-09-25T09:57:35.908Z,15.30
2017-09-25T10:00:03.087Z,15.50
2017-09-25T10:02:29.497Z,15.50
2017-09-25T10:04:56.667Z,15.60
2017-09-25T10:07:23.125Z,15.60
2017-09-25T10:09:49.521Z,15.60
2017-09-25T10:12:16.679Z,15.80
2017-09-25T10:14:43.821Z,15.70
2017-09-25T10:17:10.949Z,15.90
2017-09-25T10:19:37.384Z,15.90
2017-09-25T10:22:03.777Z,15.90
2017-09-25T10:24:30.176Z,16.10
2017-09-25T10:26:57.336Z,16.30
2017-09-25T10:29:23.727Z,16.30
2017-09-25T10:31:50.170Z,16.40
2017-09-25T10:34:17.317Z,16.50
2017-09-25T10:36:44.533Z,16.60
2017-09-25T10:39:10.963Z,16.50
2017-09-25T10:41:37.415Z,16.70
2017-09-25T10:44:03.826Z,16.60
2017-09-25T10:46:31.008Z,16.30
2017-09-25T10:48:57.414Z,16.30
2017-09-25T10:51:23.850Z,16.10
2017-09-25T10:53:50.255Z,15.80
2017-09-25T10:56:16.679Z,15.80
2017-09-25T10:58:43.118Z,16.00
2017-09-25T11:01:09.512Z,16.10
2017-09-25T11:03:35.940Z,16.30
2017-09-25T11:06:02.348Z,16.50
2017-09-25T11:08:28.749Z,16.80
2017-09-25T11:10:55.163Z,17.10
2017-09-25T11:13:22.294Z,17.00
2017-09-25T11:15:48.727Z,17.00
2017-09-25T11:18:16.664Z,17.40
2017-09-25T11:20:43.085Z,17.40
2017-09-25T11:23:09.493Z,17.50
2017-09-25T11:25:35.935Z,17.50
2017-09-25T11:28:02.354Z,17.30
2017-09-25T11:30:28.788Z,17.10
2017-09-25T11:32:55.194Z,17.00
2017-09-25T11:35:21.597Z,17.00
2017-09-25T11:37:48.030Z,17.20
2017-09-25T11:40:14.531Z,17.40
2017-09-25T11:42:40.968Z,17.60
2017-09-25T11:45:07.379Z,17.80
2017-09-25T11:47:34.570Z,17.90
2017-09-25T11:50:00.977Z,17.90
2017-09-25T11:52:27.393Z,18.10
2017-09-25T11:54:54.514Z,18.10
2017-09-25T11:57:20.956Z,18.10
2017-09-25T11:59:48.112Z,18.50
2017-09-25T12:02:15.263Z,18.50
2017-09-25T12:04:42.418Z,18.60
2017-09-25T12:10:09.241Z,18.60
2017-09-25T12:12:35.651Z,18.60
2017-09-25T12:15:02.077Z,18.50
2017-09-25T12:17:28.587Z,18.40
2017-09-25T12:19:55.771Z,18.40
2017-09-25T12:22:22.198Z,18.40
2017-09-25T12:24:48.633Z,18.40
2017-09-25T12:27:15.069Z,18.30
2017-09-25T12:29:41.518Z,18.20
2017-09-25T12:32:07.934Z,18.30
2017-09-25T12:34:34.342Z,18.10
2017-09-25T12:37:01.521Z,18.10
2017-09-25T12:39:27.986Z,18.10
2017-09-25T12:41:54.408Z,18.20
2017-09-25T12:44:20.844Z,18.50
2017-09-25T12:46:47.282Z,18.10
2017-09-25T12:49:13.707Z,18.10
2017-09-25T12:51:40.184Z,18.00
2017-09-25T12:54:07.357Z,18.20
2017-09-25T12:56:34.513Z,18.20
2017-09-25T12:59:00.925Z,18.20
2017-09-25T13:01:28.087Z,18.40
2017-09-25T13:03:54.482Z,18.40
2017-09-25T13:06:20.852Z,18.60
2017-09-25T13:08:48.011Z,18.60
2017-09-25T13:11:14.410Z,18.60
2017-09-25T13:13:40.802Z,18.40
2017-09-25T13:16:07.198Z,18.20
2017-09-25T13:18:33.604Z,18.30
2017-09-25T13:21:00.008Z,18.20
2017-09-25T13:23:26.463Z,18.30
2017-09-25T13:25:52.878Z,18.20
2017-09-25T13:28:19.266Z,18.20
2017-09-25T13:30:45.693Z,18.20
2017-09-25T13:33:12.851Z,18.10
2017-09-25T13:35:39.298Z,18.10
2017-09-25T13:38:05.708Z,18.00
2017-09-25T13:40:32.849Z,18.00
2017-09-25T13:42:59.976Z,18.00
2017-09-25T13:45:26.395Z,17.90
2017-09-25T13:47:52.794Z,17.80
2017-09-25T13:50:19.209Z,17.90
2017-09-25T13:52:45.628Z,17.90
2017-09-25T13:55:12.776Z,17.70
2017-09-25T13:57:40.048Z,17.60
2017-09-25T14:02:38.517Z,17.80
2017-09-25T14:05:05.717Z,17.40
2017-09-25T14:07:32.189Z,17.40
2017-09-25T14:10:05.151Z,17.40
2017-09-25T14:12:31.580Z,17.40
2017-09-25T14:14:58.017Z,17.50
2017-09-25T14:17:24.426Z,17.60
2017-09-25T14:19:50.870Z,17.70
2017-09-25T14:22:17.292Z,17.50
2017-09-25T14:24:43.729Z,17.50
2017-09-25T14:27:10.154Z,17.50
2017-09-25T14:29:36.559Z,17.60
2017-09-25T14:32:03.731Z,17.80
2017-09-25T14:34:30.169Z,17.80
2017-09-25T14:36:56.602Z,18.00
2017-09-25T14:39:23.058Z,18.10
2017-09-25T14:41:50.205Z,17.90
2017-09-25T14:44:17.340Z,17.90
2017-09-25T14:46:43.734Z,17.90
2017-09-25T14:49:10.954Z,17.70
2017-09-25T14:51:37.435Z,17.70
2017-09-25T14:54:04.580Z,17.70
2017-09-25T14:56:31.749Z,17.50
2017-09-25T14:58:58.193Z,17.50
2017-09-25T15:01:24.615Z,17.40
2017-09-25T15:03:51.024Z,17.30
2017-09-25T15:06:18.198Z,17.50
2017-09-25T15:08:44.584Z,17.50
2017-09-25T15:11:10.965Z,17.60
2017-09-25T15:13:37.361Z,17.50
2017-09-25T15:16:03.760Z,17.60
2017-09-25T15:18:30.171Z,17.70
2017-09-25T15:20:56.592Z,17.80
2017-09-25T15:23:23.022Z,17.50
2017-09-25T15:25:50.220Z,17.10
2017-09-25T15:28:16.623Z,17.00
2017-09-25T15:30:43.101Z,16.90
2017-09-25T15:33:09.529Z,17.10
2017-09-25T15:35:35.964Z,17.00
2017-09-25T15:38:02.386Z,17.10
2017-09-25T15:40:28.799Z,17.10
2017-09-25T15:42:55.207Z,17.10
2017-09-25T15:45:21.601Z,17.20
2017-09-25T15:47:48.000Z,17.20
2017-09-25T15:50:14.425Z,17.10
2017-09-25T15:52:40.867Z,17.10
2017-09-25T15:55:07.340Z,17.10
2017-09-25T15:57:33.738Z,17.00
2017-09-25T16:00:00.195Z,16.80
2017-09-25T16:02:26.600Z,16.80
2017-09-25T16:04:53.078Z,16.80
2017-09-25T16:07:20.424Z,16.60
2017-09-25T16:09:46.820Z,16.60
2017-09-25T16:12:13.234Z,16.70
2017-09-25T16:14:39.659Z,16.70
2017-09-25T16:17:06.099Z,16.70
2017-09-25T16:19:32.523Z,16.50
2017-09-25T16:21:58.951Z,16.50
2017-09-25T16:24:26.082Z,16.30
2017-09-25T16:26:52.557Z,16.30
2017-09-25T16:29:18.942Z,16.20
2017-09-25T16:31:45.420Z,16.20
2017-09-25T16:34:11.840Z,16.20
2017-09-25T16:36:38.259Z,16.20
2017-09-25T16:39:05.440Z,16.20
2017-09-25T16:41:31.878Z,16.20
2017-09-25T16:43:59.017Z,16.20
2017-09-25T16:46:25.440Z,16.20
2017-09-25T16:48:51.865Z,16.30
2017-09-25T16:51:18.990Z,16.30
2017-09-25T16:53:45.452Z,16.20
2017-09-25T16:56:11.818Z,16.20
2017-09-25T16:58:38.225Z,16.20
2017-09-25T17:01:04.682Z,16.10
2017-09-25T17:03:31.097Z,16.10
2017-09-25T17:05:57.515Z,15.90
2017-09-25T17:08:23.956Z,15.70
2017-09-25T17:10:50.380Z,15.70
2017-09-25T17:13:17.541Z,15.40
2017-09-25T17:15:43.944Z,15.40
2017-09-25T17:18:11.121Z,15.30
2017-09-25T17:20:37.530Z,15.20
2017-09-25T17:23:04.664Z,15.40
2017-09-25T17:25:31.809Z,15.50
2017-09-25T17:27:58.227Z,15.40
2017-09-25T17:30:24.635Z,15.40
2017-09-25T17:32:51.036Z,15.40
2017-09-25T17:35:18.241Z,15.50
2017-09-25T17:37:44.665Z,15.40
2017-09-25T17:40:11.082Z,15.40
2017-09-25T17:42:37.493Z,15.40
2017-09-25T17:45:03.891Z,15.50
2017-09-25T17:47:30.321Z,15.50
2017-09-25T17:49:56.743Z,15.40
2017-09-25T17:52:23.128Z,15.40
2017-09-25T17:54:49.644Z,15.50
2017-09-25T17:57:16.080Z,15.40
2017-09-25T17:59:43.225Z,15.20
2017-09-25T18:02:10.907Z,15.10
2017-09-25T18:04:37.312Z,15.10
2017-09-25T18:07:04.459Z,14.90
2017-09-25T18:09:30.924Z,14.90
2017-09-25T18:11:57.325Z,14.80
2017-09-25T18:14:23.721Z,14.90
2017-09-25T18:16:50.156Z,14.80
2017-09-25T18:19:16.602Z,14.70
2017-09-25T18:21:43.025Z,14.50
2017-09-25T18:24:09.489Z,14.40
2017-09-25T18:26:35.949Z,14.30
2017-09-25T18:29:02.397Z,14.20
2017-09-25T18:31:28.865Z,14.20
2017-09-25T18:33:55.329Z,14.20
2017-09-25T18:36:22.525Z,14.30
2017-09-25T18:38:48.912Z,14.30
2017-09-25T18:41:15.344Z,14.30
2017-09-25T18:43:42.509Z,14.20
2017-09-25T18:46:09.656Z,14.20
2017-09-25T18:48:36.828Z,14.10
2017-09-25T18:51:03.280Z,14.10
2017-09-25T18:53:29.773Z,14.10
2017-09-25T18:55:56.942Z,14.00
2017-09-25T18:58:23.395Z,14.00
2017-09-25T19:00:49.851Z,14.10
2017-09-25T19:03:16.284Z,14.00
2017-09-25T19:05:43.428Z,14.00
2017-09-25T19:08:09.849Z,14.00
2017-09-25T19:10:36.286Z,14.00
2017-09-25T19:13:02.697Z,13.90
2017-09-25T19:15:29.139Z,13.80
2017-09-25T19:17:55.542Z,13.80
2017-09-25T19:20:22.716Z,13.70
2017-09-25T19:22:49.160Z,13.70
2017-09-25T19:25:15.586Z,13.70
2017-09-25T19:27:42.100Z,13.70
2017-09-25T19:30:08.556Z,13.50
2017-09-25T19:32:34.950Z,13.40
2017-09-25T19:35:02.143Z,13.20
2017-09-25T19:37:28.552Z,13.20
2017-09-25T19:39:54.984Z,13.30
2017-09-25T19:42:22.141Z,13.20
2017-09-25T19:44:48.572Z,13.20
2017-09-25T19:47:15.016Z,13.20
2017-09-25T19:49:46.503Z,13.20
2017-09-25T19:52:13.152Z,13.20
2017-09-25T19:54:49.128Z,13.10
2017-09-25T19:57:35.934Z,13.00
2017-09-25T20:00:03.117Z,13.00
2017-09-25T20:02:29.620Z,13.00
2017-09-25T20:04:56.784Z,12.90
2017-09-25T20:07:24.012Z,13.00
2017-09-25T20:09:50.435Z,13.00
2017-09-25T20:12:16.868Z,13.00
2017-09-25T20:14:46.253Z,13.10
2017-09-25T20:17:15.441Z,13.20
2017-09-25T20:19:41.972Z,13.10
2017-09-25T20:22:08.393Z,13.20
2017-09-25T20:24:34.824Z,13.10
2017-09-25T20:27:01.238Z,13.20
2017-09-25T20:29:28.392Z,13.10
2017-09-25T20:34:27.985Z,13.10
2017-09-25T20:36:55.959Z,13.00
2017-09-25T20:39:22.382Z,13.00
2017-09-25T20:41:52.712Z,13.10
2017-09-25T20:44:19.273Z,13.10
2017-09-25T20:46:45.703Z,13.00
2017-09-25T20:49:12.864Z,12.90
2017-09-25T20:51:39.262Z,12.90
2017-09-25T20:54:06.456Z,12.70
2017-09-25T20:56:32.915Z,12.80
2017-09-25T20:58:59.329Z,12.70
2017-09-25T21:01:25.770Z,12.70
2017-09-25T21:03:52.198Z,12.70
2017-09-25T21:06:18.628Z,12.60
2017-09-25T21:08:45.112Z,12.60
2017-09-25T21:11:11.559Z,12.60
2017-09-25T21:13:38.750Z,12.60
2017-09-25T21:16:05.161Z,12.50
2017-09-25T21:18:31.653Z,12.50
2017-09-25T21:20:58.046Z,12.50
2017-09-25T21:23:25.227Z,12.60
2017-09-25T21:25:54.604Z,12.60
2017-09-25T21:28:21.074Z,12.50
2017-09-25T21:30:48.229Z,12.70
2017-09-25T21:33:14.645Z,12.70
2017-09-25T21:35:41.059Z,12.70
2017-09-25T21:38:07.465Z,12.70
2017-09-25T21:40:33.882Z,12.70
2017-09-25T21:43:01.048Z,12.80
2017-09-25T21:45:27.438Z,12.70
2017-09-25T21:47:54.583Z,12.80
2017-09-25T21:50:34.786Z,12.80
2017-09-25T21:53:01.218Z,12.90
2017-09-25T21:55:40.870Z,12.90
2017-09-25T21:58:07.303Z,13.00
2017-09-25T22:00:33.802Z,13.00
2017-09-25T22:03:00.191Z,13.00
2017-09-25T22:05:26.601Z,13.10
2017-09-25T22:07:53.018Z,13.20
2017-09-25T22:10:20.225Z,13.20
2017-09-25T22:12:46.650Z,13.20
2017-09-25T22:15:13.054Z,13.20
2017-09-25T22:17:39.460Z,13.30
2017-09-25T22:20:06.632Z,13.20
2017-09-25T22:22:33.085Z,13.20
2017-09-25T22:24:59.464Z,13.20
2017-09-25T22:27:25.894Z,13.20
2017-09-25T22:29:52.306Z,13.20
2017-09-25T22:32:18.794Z,13.20
2017-09-25T22:34:45.225Z,13.10
2017-09-25T22:37:11.657Z,13.10
2017-09-25T22:39:38.096Z,13.00
2017-09-25T22:42:04.532Z,13.10
2017-09-25T22:44:30.981Z,13.10
2017-09-25T22:46:57.391Z,13.10
2017-09-25T22:49:23.832Z,13.10
2017-09-25T22:51:50.295Z,13.10
2017-09-25T22:54:17.480Z,13.20
2017-09-25T22:56:44.652Z,13.20
2017-09-25T22:59:11.084Z,13.20
2017-09-25T23:01:38.321Z,13.20
2017-09-25T23:04:09.349Z,13.20
2017-09-25T23:06:35.781Z,13.20
2017-09-25T23:09:02.225Z,13.10
2017-09-25T23:11:29.412Z,13.10
2017-09-25T23:13:55.861Z,13.00
2017-09-25T23:16:22.257Z,13.10
2017-09-25T23:18:48.694Z,13.10
2017-09-25T23:21:15.815Z,13.00
2017-09-25T23:23:42.230Z,13.00
2017-09-25T23:26:08.686Z,13.00
2017-09-25T23:28:35.860Z,12.90
2017-09-25T23:31:03.249Z,12.90
2017-09-25T23:33:29.664Z,12.90
2017-09-25T23:35:56.081Z,12.90
2017-09-25T23:38:23.220Z,12.90
2017-09-25T23:40:50.368Z,12.90
2017-09-25T23:43:16.775Z,12.90
2017-09-25T23:45:43.209Z,12.90
2017-09-25T23:48:09.610Z,12.80
2017-09-25T23:50:36.012Z,12.80
2017-09-25T23:53:02.442Z,12.80
2017-09-25T23:55:29.561Z,12.80
2017-09-25T23:57:55.964Z,12.80
